Time;durP1;ratioP1;P1;durP2;ratioP2;P2;SDS_P1;SDS_P2;PMS_P1;PMS_P2;Temp;Humidity;BMP_temperature;BMP_pressure;BME280_temperature;BME280_humidity;BME280_pressure;Samples;Min_cycle;Max_cycle;Signal;HPM_P1;HPM_P2
2024/02/25 00:01:20;;;;;;;4.90;2.83;;;3.30;98.00;;;;;;5031785;28;20461;-72
2024/02/25 00:03:47;;;;;;;6.37;3.13;;;3.20;98.00;;;;;;5030649;28;20495;-72
2024/02/25 00:06:15;;;;;;;8.80;3.07;;;3.30;98.00;;;;;;5031713;28;20469;-72
2024/02/25 00:08:42;;;;;;;5.57;2.97;;;3.20;98.00;;;;;;5031763;28;20547;-72
2024/02/25 00:11:11;;;;;;;5.03;2.90;;;3.10;98.00;;;;;;5031589;28;20452;-72
2024/02/25 00:13:38;;;;;;;4.70;2.83;;;3.10;98.00;;;;;;5031685;28;20457;-72
2024/02/25 00:16:06;;;;;;;7.30;3.10;;;3.10;98.00;;;;;;5031757;28;20455;-72
2024/02/25 00:18:33;;;;;;;4.57;2.90;;;3.00;98.00;;;;;;5031627;28;20460;-72
2024/02/25 00:21:00;;;;;;;4.67;2.80;;;3.00;98.00;;;;;;5031583;28;20452;-72
2024/02/25 00:23:27;;;;;;;5.17;3.00;;;3.00;98.00;;;;;;5031646;28;20496;-72
2024/02/25 00:25:54;;;;;;;4.47;3.07;;;3.00;98.00;;;;;;5031526;28;20476;-72
2024/02/25 00:28:23;;;;;;;5.43;3.27;;;3.10;98.00;;;;;;5030445;28;20468;-72
2024/02/25 00:30:50;;;;;;;7.63;3.70;;;3.00;98.00;;;;;;5031632;28;20934;-72
2024/02/25 00:33:17;;;;;;;7.67;3.70;;;3.00;98.00;;;;;;5031696;28;20832;-72
2024/02/25 00:35:44;;;;;;;6.23;3.63;;;2.90;98.00;;;;;;5031587;28;20462;-72
2024/02/25 00:38:11;;;;;;;6.13;3.63;;;2.90;98.00;;;;;;5031477;28;20986;-72
2024/02/25 00:40:38;;;;;;;10.57;4.17;;;2.70;98.00;;;;;;5031327;28;20500;-72
2024/02/25 00:43:06;;;;;;;10.07;4.30;;;2.70;98.00;;;;;;5031578;28;20484;-72
2024/02/25 00:45:35;;;;;;;9.10;3.47;;;2.80;98.00;;;;;;5032029;28;21071;-72
2024/02/25 00:48:03;;;;;;;7.33;3.27;;;2.60;98.00;;;;;;5031838;28;20465;-72
2024/02/25 00:50:30;;;;;;;6.43;3.40;;;2.60;98.00;;;;;;5031253;28;20462;-72
2024/02/25 00:52:59;;;;;;;6.10;3.47;;;2.60;98.00;;;;;;5031628;28;20486;-72
2024/02/25 00:55:28;;;;;;;5.90;3.70;;;2.60;98.00;;;;;;5031301;28;20460;-72
2024/02/25 00:57:55;;;;;;;6.87;3.80;;;2.40;98.00;;;;;;5031357;28;20459;-72
2024/02/25 01:00:22;;;;;;;10.03;3.90;;;2.40;98.00;;;;;;5031184;28;20460;-72
2024/02/25 01:02:51;;;;;;;8.23;3.40;;;2.30;98.00;;;;;;5034916;28;20478;-72
2024/02/25 01:05:18;;;;;;;9.30;3.97;;;2.40;98.00;;;;;;5034935;28;20443;-72
2024/02/25 01:07:45;;;;;;;8.17;3.73;;;2.40;98.00;;;;;;5034667;28;20513;-72
2024/02/25 01:10:12;;;;;;;6.63;3.60;;;2.40;98.00;;;;;;5033495;28;20812;-72
2024/02/25 01:12:39;;;;;;;8.40;4.27;;;2.40;98.00;;;;;;5034721;28;20946;-72
2024/02/25 01:15:08;;;;;;;9.13;4.43;;;2.40;98.00;;;;;;5034791;28;20458;-72
2024/02/25 01:17:35;;;;;;;7.47;3.93;;;2.20;98.00;;;;;;5034600;28;20458;-72
2024/02/25 01:20:04;;;;;;;8.73;3.87;;;2.20;98.00;;;;;;5034472;28;20478;-72
2024/02/25 01:22:31;;;;;;;7.30;3.50;;;2.20;98.00;;;;;;5034397;28;20477;-72
2024/02/25 01:24:58;;;;;;;7.80;3.60;;;2.20;98.00;;;;;;5034594;28;20475;-72
2024/02/25 01:27:25;;;;;;;6.60;3.57;;;2.10;98.00;;;;;;5033208;28;20466;-72
2024/02/25 01:29:52;;;;;;;6.37;3.60;;;2.20;98.00;;;;;;5034561;28;20478;-72
2024/02/25 01:32:19;;;;;;;5.87;3.60;;;2.10;98.00;;;;;;5034469;28;20447;-72
2024/02/25 01:34:47;;;;;;;9.47;4.10;;;2.10;98.00;;;;;;5034190;28;20466;-72
2024/02/25 01:37:16;;;;;;;6.60;4.07;;;2.20;98.00;;;;;;5034353;28;20508;-72
2024/02/25 01:39:43;;;;;;;7.13;3.67;;;2.30;98.00;;;;;;5034278;28;20777;-72
2024/02/25 01:42:11;;;;;;;8.90;4.00;;;2.10;98.00;;;;;;5032965;28;20478;-72
2024/02/25 01:44:53;;;;;;;6.73;3.47;;;2.00;98.00;;;;;;5034164;28;21003;-72
2024/02/25 01:47:20;;;;;;;6.50;3.17;;;2.10;98.00;;;;;;5033668;28;20530;-72
2024/02/25 01:49:48;;;;;;;8.13;3.37;;;2.00;98.00;;;;;;5033528;28;20466;-72
2024/02/25 01:52:17;;;;;;;7.40;3.70;;;1.90;98.00;;;;;;5033391;28;20451;-72
2024/02/25 01:54:45;;;;;;;5.63;3.50;;;2.00;98.00;;;;;;5033731;28;20459;-72
2024/02/25 01:57:13;;;;;;;7.23;3.87;;;2.20;98.00;;;;;;5034163;28;20476;-72
2024/02/25 01:59:40;;;;;;;7.23;3.70;;;2.10;98.00;;;;;;5033682;28;20448;-72
2024/02/25 02:02:13;;;;;;;6.17;3.33;;;2.10;98.00;;;;;;5034210;28;20448;-71
2024/02/25 02:04:40;;;;;;;7.43;3.30;;;2.10;98.00;;;;;;5033992;28;20497;-72
2024/02/25 02:07:09;;;;;;;7.90;3.40;;;2.10;98.00;;;;;;5033591;28;20505;-72
2024/02/25 02:09:37;;;;;;;5.73;3.03;;;2.00;98.00;;;;;;5033906;28;20451;-72
2024/02/25 02:12:06;;;;;;;4.90;3.10;;;1.90;98.00;;;;;;5033451;28;20459;-72
2024/02/25 02:14:33;;;;;;;6.70;3.30;;;1.70;98.00;;;;;;5033738;28;20469;-72
2024/02/25 02:17:01;;;;;;;5.23;3.10;;;1.60;98.00;;;;;;5033734;28;20477;-71
2024/02/25 02:19:28;;;;;;;8.30;3.33;;;1.50;98.00;;;;;;5033607;28;20447;-72
2024/02/25 02:21:57;;;;;;;5.70;3.00;;;1.60;98.00;;;;;;5033647;28;20468;-72
2024/02/25 02:24:24;;;;;;;6.23;3.17;;;1.60;98.00;;;;;;5033409;28;20494;-72
2024/02/25 02:26:52;;;;;;;8.90;3.80;;;1.70;98.00;;;;;;5033360;28;20558;-72
2024/02/25 02:29:19;;;;;;;6.33;3.40;;;1.70;98.00;;;;;;5033531;28;20455;-72
2024/02/25 02:31:46;;;;;;;6.43;3.50;;;1.80;98.00;;;;;;5033480;28;20459;-72
2024/02/25 02:34:14;;;;;;;5.50;3.23;;;1.80;98.00;;;;;;5033533;28;20465;-72
2024/02/25 02:36:42;;;;;;;5.70;3.07;;;1.80;98.00;;;;;;5033464;28;20531;-72
2024/02/25 02:39:10;;;;;;;5.73;3.33;;;1.80;98.00;;;;;;5033164;28;20463;-72
2024/02/25 02:41:37;;;;;;;4.50;3.10;;;1.80;98.00;;;;;;5033207;28;20452;-72
2024/02/25 02:44:06;;;;;;;6.20;3.10;;;1.90;98.00;;;;;;5033228;28;20494;-72
2024/02/25 02:46:39;;;;;;;7.07;3.07;;;1.90;98.00;;;;;;5032771;28;20455;-72
2024/02/25 02:49:06;;;;;;;5.33;2.90;;;2.10;98.00;;;;;;5032861;28;20459;-71
2024/02/25 02:51:34;;;;;;;5.97;3.10;;;2.10;98.00;;;;;;5032995;28;20467;-72
2024/02/25 02:54:08;;;;;;;5.53;2.80;;;2.00;98.00;;;;;;5032803;28;20455;-72
2024/02/25 02:56:37;;;;;;;8.23;3.30;;;2.00;98.00;;;;;;5032790;28;20459;-72
2024/02/25 02:59:04;;;;;;;5.37;2.73;;;1.80;98.00;;;;;;5032723;28;20542;-72
2024/02/25 03:01:31;;;;;;;6.83;3.37;;;1.80;98.00;;;;;;5032626;28;20948;-71
2024/02/25 03:03:58;;;;;;;4.50;2.80;;;1.80;98.00;;;;;;5032927;28;20492;-72
2024/02/25 03:06:25;;;;;;;7.10;3.23;;;1.70;98.00;;;;;;5032193;28;20883;-72
2024/02/25 03:08:53;;;;;;;8.03;3.70;;;1.70;98.00;;;;;;5032651;28;20450;-72
2024/02/25 03:11:20;;;;;;;7.03;3.37;;;1.70;98.00;;;;;;5032371;28;20462;-72
2024/02/25 03:13:48;;;;;;;7.40;3.40;;;1.50;98.00;;;;;;5032402;28;20459;-72
2024/02/25 03:16:16;;;;;;;5.90;3.27;;;1.60;98.00;;;;;;5032462;28;20450;-72
2024/02/25 03:18:43;;;;;;;6.93;3.40;;;1.60;98.00;;;;;;5031445;28;20618;-72
2024/02/25 03:21:10;;;;;;;5.23;3.33;;;1.50;98.00;;;;;;5032424;28;20454;-72
2024/02/25 03:23:37;;;;;;;8.70;3.83;;;1.60;98.00;;;;;;5032201;28;20594;-71
2024/02/25 03:26:05;;;;;;;8.00;3.60;;;1.70;98.00;;;;;;5030464;28;20999;-72
2024/02/25 03:28:32;;;;;;;5.80;3.10;;;1.70;98.00;;;;;;5032278;28;20458;-72
2024/02/25 03:31:03;;;;;;;8.77;4.10;;;1.70;98.00;;;;;;5032084;28;20553;-72
2024/02/25 03:33:30;;;;;;;11.73;4.33;;;1.60;98.00;;;;;;5032261;28;20462;-72
2024/02/25 03:36:05;;;;;;;6.53;3.43;;;1.60;98.00;;;;;;5032130;28;20451;-72
2024/02/25 03:38:32;;;;;;;6.20;3.40;;;1.70;98.00;;;;;;5032047;28;20454;-72
2024/02/25 03:40:59;;;;;;;8.13;3.07;;;1.70;98.00;;;;;;5032031;28;20793;-72
2024/02/25 03:43:26;;;;;;;6.27;3.30;;;1.50;98.00;;;;;;5030705;28;20469;-72
2024/02/25 03:45:53;;;;;;;7.40;3.60;;;1.40;98.00;;;;;;5032063;28;20934;-72
2024/02/25 03:48:21;;;;;;;7.17;3.60;;;1.30;98.00;;;;;;5032055;28;20779;-72
2024/02/25 03:50:49;;;;;;;9.63;3.90;;;1.30;98.00;;;;;;5031941;28;20457;-71
2024/02/25 03:53:16;;;;;;;6.93;3.80;;;1.30;98.00;;;;;;5031852;28;20458;-71
2024/02/25 03:55:43;;;;;;;8.33;4.13;;;1.30;98.00;;;;;;5031760;28;20458;-72
2024/02/25 03:58:10;;;;;;;7.43;3.50;;;1.10;98.00;;;;;;5032293;28;20446;-72
2024/02/25 04:00:37;;;;;;;7.00;3.73;;;1.10;98.00;;;;;;5031922;28;20450;-71
2024/02/25 04:03:05;;;;;;;7.97;3.70;;;1.20;98.00;;;;;;5031943;28;21006;-71
2024/02/25 04:05:33;;;;;;;6.37;3.43;;;1.20;98.00;;;;;;5031850;28;20636;-71
2024/02/25 04:08:00;;;;;;;5.80;3.33;;;1.20;98.00;;;;;;5031954;28;20461;-71
2024/02/25 04:10:28;;;;;;;5.40;2.90;;;1.30;98.00;;;;;;5030507;28;20447;-71
2024/02/25 04:12:55;;;;;;;5.30;3.10;;;1.20;98.00;;;;;;5031975;28;20465;-71
2024/02/25 04:15:22;;;;;;;4.87;2.90;;;1.20;98.00;;;;;;5031866;28;20451;-71
2024/02/25 04:17:49;;;;;;;6.37;3.20;;;1.30;98.00;;;;;;5030800;28;20451;-71
2024/02/25 04:20:17;;;;;;;9.07;3.87;;;1.30;98.00;;;;;;5031671;28;20461;-71
2024/02/25 04:22:44;;;;;;;6.27;3.20;;;1.10;98.00;;;;;;5031878;28;20545;-71
2024/02/25 04:25:11;;;;;;;7.80;3.50;;;0.90;98.00;;;;;;5031856;28;20491;-71
2024/02/25 04:27:41;;;;;;;5.90;3.20;;;1.00;98.00;;;;;;5031873;28;20462;-71
2024/02/25 04:30:09;;;;;;;6.50;3.40;;;1.20;98.00;;;;;;5031275;28;20839;-72
2024/02/25 04:32:40;;;;;;;6.73;3.30;;;1.30;98.00;;;;;;5031678;28;20932;-71
2024/02/25 04:35:08;;;;;;;7.57;3.57;;;1.30;98.00;;;;;;5031414;28;20481;-71
2024/02/25 04:37:35;;;;;;;8.07;3.37;;;1.20;98.00;;;;;;5035336;28;20462;-71
2024/02/25 04:40:04;;;;;;;6.27;3.20;;;1.10;98.00;;;;;;5055129;28;20450;-71
2024/02/25 04:42:31;;;;;;;7.00;3.30;;;1.00;98.00;;;;;;5055252;28;20484;-71
2024/02/25 04:44:59;;;;;;;7.60;3.40;;;0.90;98.00;;;;;;5055186;28;20506;-71
2024/02/25 04:47:26;;;;;;;6.40;3.17;;;0.90;98.00;;;;;;5055048;28;20531;-71
2024/02/25 04:49:54;;;;;;;8.53;4.07;;;0.90;98.00;;;;;;5054911;28;20471;-71
2024/02/25 04:52:23;;;;;;;5.47;3.10;;;0.80;98.00;;;;;;5055055;28;20464;-71
2024/02/25 04:54:51;;;;;;;7.03;3.33;;;0.70;98.00;;;;;;5054993;28;20452;-71
2024/02/25 04:57:20;;;;;;;5.73;2.90;;;0.70;98.00;;;;;;5054737;28;20493;-71
2024/02/25 04:59:47;;;;;;;5.10;2.77;;;0.80;98.00;;;;;;5054983;28;20453;-71
2024/02/25 05:02:15;;;;;;;4.13;2.30;;;0.80;98.00;;;;;;5054800;28;20464;-71
2024/02/25 05:04:43;;;;;;;5.00;3.03;;;0.90;98.00;;;;;;5053780;28;20496;-71
2024/02/25 05:07:10;;;;;;;7.00;3.50;;;1.00;98.00;;;;;;5054773;28;20472;-71
2024/02/25 05:09:37;;;;;;;6.50;3.27;;;1.00;98.00;;;;;;5054881;28;20479;-71
2024/02/25 05:12:06;;;;;;;5.33;3.03;;;1.00;98.00;;;;;;5054773;28;20457;-71
2024/02/25 05:14:34;;;;;;;5.57;3.10;;;1.00;98.00;;;;;;5054602;28;20454;-71
2024/02/25 05:17:01;;;;;;;5.90;3.10;;;1.00;98.00;;;;;;5054536;28;20929;-71
2024/02/25 05:19:29;;;;;;;8.10;3.47;;;0.90;98.00;;;;;;5054620;28;20450;-71
2024/02/25 05:21:58;;;;;;;5.40;3.20;;;0.90;98.00;;;;;;5054495;28;20552;-71
2024/02/25 05:24:25;;;;;;;6.13;2.57;;;1.00;98.00;;;;;;5054100;28;20477;-71
2024/02/25 05:26:52;;;;;;;6.27;3.33;;;1.10;98.00;;;;;;5054599;28;20794;-71
2024/02/25 05:29:19;;;;;;;5.40;3.00;;;1.00;98.00;;;;;;5054400;28;20445;-71
2024/02/25 05:31:49;;;;;;;5.87;3.00;;;0.80;98.00;;;;;;5053343;28;20453;-71
2024/02/25 05:34:16;;;;;;;6.40;3.17;;;0.80;98.00;;;;;;5054326;28;20829;-71
2024/02/25 05:36:43;;;;;;;6.40;3.30;;;0.70;98.00;;;;;;5054338;28;20480;-71
2024/02/25 05:39:11;;;;;;;7.40;3.53;;;0.80;98.00;;;;;;5052919;28;20458;-71
2024/02/25 05:41:39;;;;;;;5.93;3.07;;;0.90;98.00;;;;;;5054300;28;20454;-71
2024/02/25 05:44:06;;;;;;;9.83;3.40;;;1.00;98.00;;;;;;5054077;28;20458;-71
2024/02/25 05:46:33;;;;;;;7.50;3.90;;;1.10;98.00;;;;;;5054013;28;20458;-71
2024/02/25 05:49:02;;;;;;;8.90;3.47;;;1.00;98.00;;;;;;5053087;28;20461;-71
2024/02/25 05:51:29;;;;;;;8.37;3.70;;;0.90;98.00;;;;;;5053875;28;20496;-71
2024/02/25 05:53:57;;;;;;;7.10;3.53;;;0.70;98.00;;;;;;5054147;28;20456;-71
2024/02/25 05:56:26;;;;;;;7.40;3.70;;;0.70;98.00;;;;;;5053931;28;20454;-71
2024/02/25 05:58:53;;;;;;;6.50;3.20;;;0.80;98.00;;;;;;5054046;28;20460;-71
2024/02/25 06:01:20;;;;;;;7.00;3.50;;;0.80;98.00;;;;;;5053995;28;20465;-71
2024/02/25 06:03:47;;;;;;;8.10;3.77;;;1.00;98.00;;;;;;5054138;28;20454;-71
2024/02/25 06:06:16;;;;;;;7.67;3.70;;;1.10;98.00;;;;;;5053850;28;20498;-71
2024/02/25 06:08:43;;;;;;;6.80;3.43;;;1.10;98.00;;;;;;5053779;28;20950;-71
2024/02/25 06:11:10;;;;;;;8.40;3.57;;;0.90;98.00;;;;;;5053947;28;20463;-71
2024/02/25 06:13:37;;;;;;;8.60;3.60;;;0.70;98.00;;;;;;5052751;28;20536;-71
2024/02/25 06:16:05;;;;;;;7.50;3.80;;;0.80;98.00;;;;;;5053309;28;20971;-71
2024/02/25 06:18:32;;;;;;;6.40;3.53;;;0.80;98.00;;;;;;5053394;28;20794;-71
2024/02/25 06:21:00;;;;;;;9.23;3.87;;;0.70;98.00;;;;;;5052425;28;20478;-71
2024/02/25 06:23:30;;;;;;;6.90;3.70;;;0.70;98.00;;;;;;5053772;28;20449;-71
2024/02/25 06:25:57;;;;;;;7.30;3.63;;;0.70;98.00;;;;;;5052127;28;20995;-71
2024/02/25 06:28:25;;;;;;;8.80;4.03;;;0.80;98.00;;;;;;5053381;28;20886;-71
2024/02/25 06:30:52;;;;;;;8.97;4.20;;;0.80;98.00;;;;;;5053626;28;20454;-71
2024/02/25 06:33:19;;;;;;;6.40;3.40;;;0.90;98.00;;;;;;5053405;28;20453;-71
2024/02/25 06:35:46;;;;;;;5.83;3.40;;;1.00;98.00;;;;;;5053337;28;20485;-71
2024/02/25 06:38:13;;;;;;;7.17;3.37;;;0.80;98.00;;;;;;5052650;28;20465;-71
2024/02/25 06:40:46;;;;;;;6.87;3.43;;;0.80;98.00;;;;;;5053223;28;20462;-71
2024/02/25 06:43:13;;;;;;;6.93;3.87;;;0.80;98.00;;;;;;5053367;28;20862;-71
2024/02/25 06:45:41;;;;;;;6.97;3.37;;;0.80;98.00;;;;;;5053083;28;20988;-71
2024/02/25 06:48:08;;;;;;;6.37;3.40;;;0.80;98.00;;;;;;5053093;28;20446;-71
2024/02/25 06:50:35;;;;;;;6.50;3.30;;;0.70;98.00;;;;;;5052850;28;20454;-71
2024/02/25 06:53:03;;;;;;;5.60;3.30;;;0.70;98.00;;;;;;5053138;28;20449;-71
2024/02/25 06:55:30;;;;;;;6.80;3.57;;;0.60;98.00;;;;;;5052810;28;21100;-71
2024/02/25 06:57:58;;;;;;;7.40;3.33;;;0.70;98.00;;;;;;5052818;28;20461;-71
2024/02/25 07:00:26;;;;;;;6.90;3.30;;;0.80;98.00;;;;;;5052725;28;20461;-71
2024/02/25 07:02:54;;;;;;;7.53;3.70;;;0.80;98.00;;;;;;5052861;28;20453;-72
2024/02/25 07:05:21;;;;;;;9.13;3.23;;;0.90;98.00;;;;;;5052740;28;20494;-72
2024/02/25 07:07:50;;;;;;;10.27;3.70;;;1.00;98.00;;;;;;5052575;28;20534;-73
2024/02/25 07:10:17;;;;;;;5.93;3.10;;;0.90;98.00;;;;;;5052011;28;20540;-73
2024/02/25 07:12:44;;;;;;;5.93;2.97;;;0.90;98.00;;;;;;5052032;28;20461;-73
2024/02/25 07:15:13;;;;;;;6.03;3.00;;;1.00;98.00;;;;;;5051935;28;20457;-72
2024/02/25 07:17:41;;;;;;;6.03;3.40;;;1.10;98.00;;;;;;5052222;28;20944;-71
2024/02/25 07:20:08;;;;;;;4.97;2.90;;;1.20;98.00;;;;;;5052716;28;20557;-72
2024/02/25 07:22:36;;;;;;;4.40;2.90;;;1.30;98.00;;;;;;5052677;28;20457;-72
2024/02/25 07:25:03;;;;;;;5.27;3.50;;;1.30;98.00;;;;;;5052521;28;20481;-73
2024/02/25 07:27:30;;;;;;;4.77;2.80;;;1.30;98.00;;;;;;5052366;28;20509;-69
2024/02/25 07:29:58;;;;;;;5.00;2.80;;;1.50;98.00;;;;;;5051216;28;20458;-73
2024/02/25 07:32:26;;;;;;;4.73;2.80;;;1.60;98.00;;;;;;5051274;28;20455;-69
2024/02/25 07:34:54;;;;;;;6.70;3.37;;;1.70;98.00;;;;;;5052356;28;20442;-74
2024/02/25 07:37:21;;;;;;;6.00;3.30;;;1.70;98.00;;;;;;5052093;28;20499;-72
2024/02/25 07:39:48;;;;;;;6.30;3.47;;;1.80;98.00;;;;;;5052303;28;20541;-71
2024/02/25 07:42:15;;;;;;;5.30;3.37;;;1.90;98.00;;;;;;5052179;28;20815;-71
2024/02/25 07:44:42;;;;;;;4.60;3.00;;;2.00;98.00;;;;;;5052199;28;20466;-72
2024/02/25 07:47:09;;;;;;;4.37;3.03;;;2.10;98.00;;;;;;5052086;28;20447;-72
2024/02/25 07:49:38;;;;;;;6.40;3.20;;;2.30;98.00;;;;;;5052151;28;20462;-73
2024/02/25 07:52:05;;;;;;;7.60;3.70;;;2.30;98.00;;;;;;5052138;28;20454;-72
2024/02/25 07:54:32;;;;;;;6.23;3.43;;;2.50;98.00;;;;;;5052243;28;20466;-73
2024/02/25 07:56:59;;;;;;;5.93;3.40;;;2.60;98.00;;;;;;5052160;28;20473;-70
2024/02/25 07:59:27;;;;;;;8.77;3.20;;;2.80;98.00;;;;;;5051975;28;20465;-70
2024/02/25 08:01:56;;;;;;;6.70;3.10;;;2.90;98.00;;;;;;5052143;28;20485;-73
2024/02/25 08:04:23;;;;;;;5.23;3.07;;;2.90;98.00;;;;;;5052169;28;20458;-70
2024/02/25 08:06:52;;;;;;;4.77;3.07;;;2.90;98.00;;;;;;5032580;28;20486;-72
2024/02/25 08:09:19;;;;;;;6.70;3.00;;;3.10;98.00;;;;;;5031305;28;20469;-71
2024/02/25 08:11:46;;;;;;;6.67;3.00;;;3.20;98.00;;;;;;5030934;28;20482;-72
2024/02/25 08:14:15;;;;;;;6.73;2.83;;;3.30;98.00;;;;;;5032265;28;20455;-71
2024/02/25 08:16:43;;;;;;;4.40;2.87;;;3.40;98.00;;;;;;5030940;28;20817;-73
2024/02/25 08:19:10;;;;;;;5.27;3.17;;;3.60;98.00;;;;;;5031790;28;20456;-71
2024/02/25 08:21:39;;;;;;;4.50;2.90;;;3.60;98.00;;;;;;5031773;28;20461;-72
2024/02/25 08:24:11;;;;;;;6.70;3.10;;;3.70;98.00;;;;;;5032037;28;20821;-71
2024/02/25 08:26:39;;;;;;;4.93;3.20;;;3.80;98.00;;;;;;5030014;28;20490;-73
2024/02/25 08:29:06;;;;;;;4.53;2.90;;;3.90;98.00;;;;;;5031591;28;20455;-71
2024/02/25 08:31:33;;;;;;;4.73;2.70;;;4.00;98.00;;;;;;5031324;28;20824;-71
2024/02/25 08:34:01;;;;;;;5.90;2.90;;;4.10;98.00;;;;;;5031874;28;20546;-73
2024/02/25 08:36:28;;;;;;;8.23;3.03;;;4.20;98.00;;;;;;5030907;28;20490;-70
2024/02/25 08:38:55;;;;;;;8.20;3.43;;;4.40;98.00;;;;;;5031500;28;20841;-71
2024/02/25 08:41:25;;;;;;;4.00;2.90;;;4.60;98.00;;;;;;5013734;28;20452;-71
2024/02/25 08:43:52;;;;;;;6.43;3.50;;;4.60;98.00;;;;;;5031665;28;20464;-72
2024/02/25 08:46:19;;;;;;;5.10;2.60;;;4.60;98.00;;;;;;5031126;28;21014;-72
2024/02/25 08:48:46;;;;;;;4.87;2.87;;;4.60;98.00;;;;;;5031612;28;20451;-72
2024/02/25 08:51:13;;;;;;;4.10;2.60;;;4.60;98.00;;;;;;5030128;28;20454;-73
2024/02/25 08:53:40;;;;;;;6.40;3.00;;;4.60;98.00;;;;;;5031429;28;21153;-71
2024/02/25 08:56:08;;;;;;;4.93;2.60;;;4.60;98.00;;;;;;5030613;28;20467;-73
2024/02/25 08:58:37;;;;;;;3.70;2.67;;;4.70;98.00;;;;;;5031281;28;20448;-71
2024/02/25 09:01:06;;;;;;;4.50;2.73;;;4.80;98.00;;;;;;5031094;28;20466;-71
2024/02/25 09:03:33;;;;;;;7.30;3.50;;;5.10;98.00;;;;;;5029993;28;20454;-72
2024/02/25 09:06:00;;;;;;;3.87;2.63;;;5.10;98.00;;;;;;5030799;28;20489;-73
2024/02/25 09:08:27;;;;;;;5.77;2.90;;;5.30;98.00;;;;;;5031031;28;20461;-71
2024/02/25 09:10:54;;;;;;;4.60;2.53;;;5.30;98.00;;;;;;5031493;28;20789;-74
2024/02/25 09:13:22;;;;;;;3.63;2.40;;;5.40;98.00;;;;;;5029682;28;20456;-73
2024/02/25 09:15:52;;;;;;;5.53;3.00;;;5.40;98.00;;;;;;5030890;28;20458;-72
2024/02/25 09:18:19;;;;;;;4.73;2.70;;;5.50;98.00;;;;;;5048932;28;20463;-72
2024/02/25 09:20:46;;;;;;;4.73;2.70;;;5.60;98.00;;;;;;5049942;28;20507;-71
2024/02/25 09:23:13;;;;;;;3.63;2.60;;;5.70;98.00;;;;;;5052592;28;20455;-71
2024/02/25 09:25:41;;;;;;;5.90;2.90;;;5.80;98.00;;;;;;5054706;28;20492;-73
2024/02/25 09:28:16;;;;;;;5.17;2.80;;;5.90;98.00;;;;;;5054656;28;20455;-70
2024/02/25 09:30:44;;;;;;;3.90;2.60;;;6.00;98.00;;;;;;5054285;28;20461;-72
2024/02/25 09:33:17;;;;;;;3.30;2.27;;;6.20;98.00;;;;;;5054524;28;20461;-71
2024/02/25 09:35:44;;;;;;;4.70;2.57;;;6.20;98.00;;;;;;5054295;28;20461;-76
2024/02/25 09:38:11;;;;;;;4.57;2.53;;;6.30;98.00;;;;;;5054091;28;20457;-70
2024/02/25 09:40:38;;;;;;;6.00;2.80;;;6.40;98.00;;;;;;5054586;28;20477;-71
2024/02/25 09:43:12;;;;;;;6.43;2.97;;;6.50;98.00;;;;;;5052260;28;20460;-71
2024/02/25 09:45:44;;;;;;;4.80;2.83;;;6.70;98.00;;;;;;5052422;28;20499;-74
2024/02/25 09:48:12;;;;;;;3.47;2.60;;;6.90;98.00;;;;;;5053772;28;20450;-77
2024/02/25 09:50:41;;;;;;;6.00;3.27;;;7.10;98.00;;;;;;5034385;28;20850;-72
2024/02/25 09:53:09;;;;;;;6.60;3.53;;;7.40;98.00;;;;;;5034913;28;20496;-73
2024/02/25 09:55:36;;;;;;;9.47;4.40;;;7.70;98.00;;;;;;5054208;28;21123;-76
2024/02/25 09:58:04;;;;;;;9.27;4.47;;;7.90;98.00;;;;;;5053741;28;20457;-76
2024/02/25 10:00:31;;;;;;;7.97;4.17;;;7.90;98.00;;;;;;5054534;28;20456;-73
2024/02/25 10:02:58;;;;;;;9.77;4.50;;;8.20;98.00;;;;;;5053919;28;20443;-72
2024/02/25 10:05:25;;;;;;;9.20;5.07;;;8.50;98.00;;;;;;5053750;28;20463;-69
2024/02/25 10:08:06;;;;;;;8.57;4.00;;;8.60;98.00;;;;;;5053513;28;20458;-72
2024/02/25 10:10:33;;;;;;;8.00;4.00;;;8.70;98.00;;;;;;5272358;22;20499;-64
2024/02/25 10:13:01;;;;;;;6.63;3.83;;;8.80;98.00;;;;;;5052614;28;20456;-66
2024/02/25 10:15:28;;;;;;;7.00;3.40;;;8.80;98.00;;;;;;5052624;28;20448;-66
2024/02/25 10:17:55;;;;;;;9.43;4.00;;;8.90;98.00;;;;;;5053261;28;20461;-66
2024/02/25 10:20:22;;;;;;;6.47;3.60;;;9.10;98.00;;;;;;5052884;28;20453;-62
2024/02/25 10:23:08;;;;;;;6.57;3.60;;;9.20;98.00;;;;;;5052855;28;20452;-61
2024/02/25 10:25:35;;;;;;;4.60;2.93;;;9.40;98.00;;;;;;5052946;28;20476;-62
2024/02/25 10:28:13;;;;;;;5.67;2.90;;;9.60;98.00;;;;;;5053056;28;20551;-61
2024/02/25 10:30:41;;;;;;;6.10;3.17;;;9.70;98.00;;;;;;5052966;28;20459;-62
2024/02/25 10:33:15;;;;;;;6.40;2.80;;;9.90;98.00;;;;;;5052650;28;20453;-62
2024/02/25 10:35:43;;;;;;;4.60;2.60;;;10.10;98.00;;;;;;5052492;28;20450;-63
2024/02/25 10:38:13;;;;;;;3.70;2.53;;;10.40;98.00;;;;;;5052637;28;20452;-62
2024/02/25 10:40:46;;;;;;;3.50;2.67;;;10.60;98.00;;;;;;5034989;28;20899;-62
2024/02/25 10:43:14;;;;;;;3.47;2.30;;;10.70;98.00;;;;;;5053112;28;20447;-64
2024/02/25 10:45:42;;;;;;;4.90;2.60;;;10.70;98.00;;;;;;5051624;28;20466;-62
2024/02/25 10:48:12;;;;;;;3.27;1.90;;;10.80;98.00;;;;;;5053177;28;20489;-63
2024/02/25 10:50:39;;;;;;;2.63;1.90;;;10.90;98.00;;;;;;5053286;28;20489;-62
2024/02/25 10:53:07;;;;;;;3.13;2.13;;;10.80;98.00;;;;;;5053059;28;20549;-62
2024/02/25 10:55:37;;;;;;;3.93;2.50;;;10.90;98.00;;;;;;5052923;28;20449;-62
2024/02/25 10:58:06;;;;;;;3.17;2.27;;;11.10;98.00;;;;;;5067259;28;20457;-64
2024/02/25 11:00:33;;;;;;;3.87;2.20;;;11.50;98.00;;;;;;5072948;28;20935;-64
2024/02/25 11:03:03;;;;;;;3.30;2.20;;;12.00;98.00;;;;;;5072945;28;20455;-65
2024/02/25 11:05:30;;;;;;;2.40;1.93;;;12.50;98.00;;;;;;5055561;28;20533;-65
2024/02/25 11:07:58;;;;;;;2.77;2.00;;;12.90;98.00;;;;;;5054911;28;20486;-65
2024/02/25 11:10:37;;;;;;;2.60;1.93;;;13.30;98.00;;;;;;5072524;28;20497;-61
2024/02/25 11:13:04;;;;;;;4.70;2.10;;;13.40;98.00;;;;;;5072828;28;20933;-62
2024/02/25 11:15:33;;;;;;;1.73;1.60;;;13.60;98.00;;;;;;5072771;28;20807;-62
2024/02/25 11:18:05;;;;;;;1.90;1.60;;;13.60;98.00;;;;;;5072722;28;20493;-63
2024/02/25 11:20:36;;;;;;;2.93;1.40;;;13.40;96.70;;;;;;5072694;28;20802;-62
2024/02/25 11:23:03;;;;;;;2.10;1.60;;;13.20;97.00;;;;;;5072287;28;20952;-62
2024/02/25 11:25:40;;;;;;;2.13;1.60;;;13.30;96.00;;;;;;5072709;28;20463;-63
2024/02/25 11:28:09;;;;;;;2.40;1.40;;;13.50;95.60;;;;;;5072526;28;20455;-63
2024/02/25 11:30:41;;;;;;;1.53;1.40;;;13.80;97.10;;;;;;5055031;28;20450;-62
2024/02/25 11:33:38;;;;;;;1.70;1.40;;;14.10;95.30;;;;;;5072684;28;21018;-63
2024/02/25 11:36:15;;;;;;;2.23;1.50;;;14.50;94.20;;;;;;5072206;28;20545;-62
2024/02/25 11:38:44;;;;;;;1.70;1.60;;;15.00;93.80;;;;;;5072084;28;20559;-63
2024/02/25 11:41:12;;;;;;;1.97;1.60;;;15.20;92.10;;;;;;5072216;28;20462;-62
2024/02/25 11:43:44;;;;;;;2.83;1.87;;;15.30;90.80;;;;;;5072257;28;20460;-63
2024/02/25 11:46:12;;;;;;;2.43;1.70;;;15.30;91.90;;;;;;5071366;28;20480;-63
2024/02/25 11:48:39;;;;;;;1.83;1.40;;;15.30;91.50;;;;;;5071678;28;20470;-62
2024/02/25 11:51:07;;;;;;;1.80;1.50;;;15.30;90.80;;;;;;5072007;28;20453;-63
2024/02/25 11:53:34;;;;;;;1.73;1.50;;;15.00;89.50;;;;;;5072172;28;20461;-62
2024/02/25 11:56:01;;;;;;;2.00;1.60;;;15.00;90.60;;;;;;5072017;28;20459;-62
2024/02/25 11:58:30;;;;;;;2.47;1.60;;;14.70;89.90;;;;;;5071960;28;20456;-63
2024/02/25 12:01:01;;;;;;;3.80;1.60;;;14.20;93.40;;;;;;5071797;28;20481;-63
2024/02/25 12:03:28;;;;;;;2.40;1.70;;;14.00;93.10;;;;;;5054623;28;20483;-62
2024/02/25 12:05:55;;;;;;;2.73;1.70;;;13.90;92.80;;;;;;5071940;28;20449;-62
2024/02/25 12:08:22;;;;;;;2.30;1.67;;;13.90;94.60;;;;;;5071391;28;20460;-62
2024/02/25 12:10:50;;;;;;;3.37;1.80;;;14.00;94.00;;;;;;5053935;28;20462;-62
2024/02/25 12:13:17;;;;;;;2.67;1.77;;;14.10;93.40;;;;;;5071767;28;20456;-62
2024/02/25 12:15:45;;;;;;;2.87;1.70;;;14.00;95.60;;;;;;5071699;28;20450;-62
2024/02/25 12:18:12;;;;;;;2.80;1.80;;;13.80;94.80;;;;;;5071725;28;20447;-62
2024/02/25 12:20:41;;;;;;;2.73;1.77;;;13.80;94.90;;;;;;5071903;28;20814;-63
2024/02/25 12:23:09;;;;;;;3.27;2.03;;;14.20;93.60;;;;;;5072058;28;20460;-63
2024/02/25 12:25:36;;;;;;;3.30;1.60;;;14.90;91.70;;;;;;5451874;22;20515;-63
2024/02/25 12:28:08;;;;;;;3.03;1.90;;;15.30;91.10;;;;;;5051051;28;20494;-62
2024/02/25 12:30:35;;;;;;;2.33;1.73;;;15.50;89.60;;;;;;5050868;28;20497;-62
2024/02/25 12:33:07;;;;;;;3.87;1.73;;;16.00;89.60;;;;;;5050777;28;20460;-62
2024/02/25 12:35:34;;;;;;;2.53;1.60;;;16.40;88.10;;;;;;5050907;28;20480;-62
2024/02/25 12:38:02;;;;;;;2.00;1.70;;;16.30;88.40;;;;;;5032933;28;20456;-63
2024/02/25 12:40:30;;;;;;;2.70;1.60;;;15.70;88.50;;;;;;5050786;28;20536;-62
2024/02/25 12:42:59;;;;;;;1.97;1.70;;;15.40;88.50;;;;;;5050707;28;20498;-62
2024/02/25 12:45:26;;;;;;;2.00;1.60;;;15.50;88.80;;;;;;5050629;28;20460;-63
2024/02/25 12:47:54;;;;;;;2.00;1.70;;;15.60;89.50;;;;;;5050556;28;20538;-63
2024/02/25 12:50:23;;;;;;;2.00;1.60;;;16.10;88.90;;;;;;5050828;28;20863;-63
2024/02/25 12:52:50;;;;;;;2.17;1.50;;;16.70;86.10;;;;;;5032887;28;20457;-63
2024/02/25 12:55:17;;;;;;;2.17;1.80;;;17.30;85.20;;;;;;5050758;28;20823;-63
2024/02/25 12:57:45;;;;;;;2.03;1.60;;;17.60;83.80;;;;;;5053172;28;20862;-63
2024/02/25 13:00:13;;;;;;;4.03;1.50;;;17.70;83.60;;;;;;5054590;28;20487;-62